Time;durP1;ratioP1;P1;durP2;ratioP2;P2;SDS_P1;SDS_P2;PMS_P1;PMS_P2;Temp;Humidity;BMP_temperature;BMP_pressure;BME280_temperature;BME280_humidity;BME280_pressure;Samples;Min_cycle;Max_cycle;Signal;HPM_P1;HPM_P2
2024/01/28 00:02:01;;;;;;;22.17;8.43;;;;;;;-147.95;100.00;58458.38;4957073;28;20050;-86
2024/01/28 00:04:28;;;;;;;39.03;17.00;;;;;;;-147.95;100.00;58458.38;4960308;28;20035;-86
2024/01/28 00:06:53;;;;;;;49.63;17.38;;;;;;;-147.95;100.00;58458.38;4976422;28;20034;-85
2024/01/28 00:09:18;;;;;;;35.05;15.88;;;;;;;-147.95;100.00;58458.38;4962946;28;20040;-85
2024/01/28 00:11:45;;;;;;;19.90;7.88;;;;;;;-147.95;100.00;58458.38;4960717;28;20038;-85
2024/01/28 00:14:10;;;;;;;19.05;7.63;;;;;;;-147.95;100.00;58458.38;4959154;28;20030;-86
2024/01/28 00:16:36;;;;;;;23.02;7.35;;;;;;;-147.95;100.00;58458.38;4942925;28;20030;-85
2024/01/28 00:19:02;;;;;;;15.50;6.40;;;;;;;-147.95;100.00;58458.38;4959878;28;21535;-86
2024/01/28 00:21:28;;;;;;;20.48;7.20;;;;;;;-147.95;100.00;58458.38;4960112;28;20042;-86
2024/01/28 00:23:54;;;;;;;15.07;5.35;;;;;;;-147.95;100.00;58458.38;4942523;28;20386;-85
2024/01/28 00:26:23;;;;;;;10.75;5.68;;;;;;;-147.95;100.00;58458.38;4945254;28;20030;-86
2024/01/28 00:28:48;;;;;;;17.63;6.50;;;;;;;-147.95;100.00;58458.38;4964340;28;20066;-85
2024/01/28 00:31:14;;;;;;;13.15;5.47;;;;;;;-147.95;100.00;58458.38;4970499;28;20041;-85
2024/01/28 00:33:40;;;;;;;13.45;5.60;;;;;;;-147.95;100.00;58458.38;4942256;28;20053;-84
2024/01/28 00:36:06;;;;;;;15.35;6.18;;;;;;;-147.95;100.00;58458.38;4972435;28;20038;-84
2024/01/28 00:38:32;;;;;;;18.73;6.82;;;;;;;-147.95;100.00;58458.38;4940502;28;20048;-84
2024/01/28 00:40:59;;;;;;;25.13;7.22;;;;;;;-147.95;100.00;58458.38;4942074;28;20294;-85
2024/01/28 00:43:30;;;;;;;13.93;5.70;;;;;;;-147.95;100.00;58458.38;4959515;28;20109;-84
2024/01/28 00:45:55;;;;;;;18.73;7.10;;;;;;;-147.95;100.00;58458.38;4942842;28;20038;-84
2024/01/28 00:48:21;;;;;;;19.20;5.93;;;;;;;-147.95;100.00;58458.38;4971368;28;20038;-85
2024/01/28 00:50:47;;;;;;;27.00;6.22;;;;;;;-147.95;100.00;58458.38;4940601;28;20065;-85
2024/01/28 00:53:18;;;;;;;20.73;6.55;;;;;;;-147.95;100.00;58458.38;4939833;28;20122;-85
2024/01/28 00:55:43;;;;;;;14.63;5.93;;;;;;;-147.95;100.00;58458.38;4943765;28;20061;-85
2024/01/28 00:58:10;;;;;;;19.25;5.80;;;;;;;-147.95;100.00;58458.38;4965847;28;20053;-85
2024/01/28 01:00:40;;;;;;;26.88;7.50;;;;;;;-147.95;100.00;58458.38;4974423;28;20056;-84
2024/01/28 01:03:06;;;;;;;21.13;7.25;;;;;;;-147.95;100.00;58458.38;4956305;28;20388;-84
2024/01/28 01:05:34;;;;;;;21.15;7.93;;;;;;;-147.95;100.00;58458.38;4938949;28;20531;-84
2024/01/28 01:07:59;;;;;;;16.23;6.82;;;;;;;-147.95;100.00;58458.38;4957241;28;20101;-84
2024/01/28 01:10:25;;;;;;;23.75;6.65;;;;;;;-147.95;100.00;58458.38;4957634;28;20042;-85
2024/01/28 01:12:51;;;;;;;13.95;5.78;;;;;;;-147.95;100.00;58458.38;4972740;28;20038;-84
2024/01/28 01:15:18;;;;;;;14.40;6.45;;;;;;;-147.95;100.00;58458.38;4953423;28;20038;-84
2024/01/28 01:17:44;;;;;;;20.95;7.47;;;;;;;-147.95;100.00;58458.38;4955943;28;20109;-84
2024/01/28 01:20:11;;;;;;;16.75;7.00;;;;;;;-147.95;100.00;58458.38;4955597;28;20511;-84
2024/01/28 01:22:37;;;;;;;17.27;6.85;;;;;;;-147.95;100.00;58458.38;4957800;28;20030;-84
2024/01/28 01:25:04;;;;;;;15.35;6.13;;;;;;;-147.95;100.00;58458.38;4940649;28;20085;-84
2024/01/28 01:27:31;;;;;;;18.33;7.05;;;;;;;-147.95;100.00;58458.38;4957645;28;20045;-84
2024/01/28 01:29:56;;;;;;;19.88;7.75;;;;;;;-147.95;100.00;58458.38;4937205;28;20035;-84
2024/01/28 01:32:24;;;;;;;15.07;6.93;;;;;;;-147.95;100.00;58458.38;4975994;28;20040;-84
2024/01/28 01:34:53;;;;;;;18.88;7.80;;;;;;;-147.95;100.00;58458.38;4945201;28;20117;-84
2024/01/28 01:37:21;;;;;;;18.92;7.03;;;;;;;-147.95;100.00;58458.38;4955242;28;20100;-84
2024/01/28 01:39:46;;;;;;;20.88;7.03;;;;;;;-147.95;100.00;58458.38;4968201;28;20038;-84
2024/01/28 01:42:11;;;;;;;17.17;7.10;;;;;;;-147.95;100.00;58458.38;4940035;28;20034;-84
2024/01/28 01:44:38;;;;;;;16.52;6.68;;;;;;;-147.95;100.00;58458.38;4941367;28;20034;-83
2024/01/28 01:47:06;;;;;;;24.20;7.47;;;;;;;-147.95;100.00;58458.38;4955742;28;20034;-84
2024/01/28 01:49:32;;;;;;;21.77;7.32;;;;;;;-147.95;100.00;58458.38;4939065;28;20069;-84
2024/01/28 01:51:58;;;;;;;17.45;6.57;;;;;;;-147.95;100.00;58458.38;4941036;28;20093;-85
2024/01/28 01:54:24;;;;;;;22.52;5.43;;;;;;;-147.95;100.00;58458.38;4957446;28;20046;-85
2024/01/28 01:56:50;;;;;;;17.67;5.95;;;;;;;-147.95;100.00;58458.38;4957415;28;20061;-84
2024/01/28 01:59:20;;;;;;;18.35;5.00;;;;;;;-147.95;100.00;58458.38;4957405;28;20030;-84
2024/01/28 02:01:47;;;;;;;14.52;4.93;;;;;;;-147.95;100.00;58458.38;4941000;28;20088;-84
2024/01/28 02:04:13;;;;;;;15.05;5.93;;;;;;;-147.95;100.00;58458.38;4971306;28;20045;-84
2024/01/28 02:06:38;;;;;;;14.27;5.10;;;;;;;-147.95;100.00;58458.38;4970093;28;20109;-84
2024/01/28 02:09:06;;;;;;;12.27;4.50;;;;;;;-147.95;100.00;58458.38;4956128;28;20034;-84
2024/01/28 02:11:35;;;;;;;12.82;5.20;;;;;;;-147.95;100.00;58458.38;4972401;28;20373;-85
2024/01/28 02:14:02;;;;;;;18.75;4.40;;;;;;;-147.95;100.00;58458.38;4963949;28;20049;-84
2024/01/28 02:16:29;;;;;;;14.43;4.20;;;;;;;-147.95;100.00;58458.38;4973381;28;20069;-84
2024/01/28 02:18:57;;;;;;;15.35;4.53;;;;;;;-147.95;100.00;58458.38;4955618;28;20024;-83
2024/01/28 02:21:24;;;;;;;16.63;5.25;;;;;;;-147.95;100.00;58458.38;4955540;28;20041;-85
2024/01/28 02:23:51;;;;;;;15.43;4.93;;;;;;;-147.95;100.00;58458.38;4954679;28;20117;-84
2024/01/28 02:26:16;;;;;;;16.63;5.45;;;;;;;-147.95;100.00;58458.38;4941182;28;20038;-84
2024/01/28 02:28:42;;;;;;;14.63;4.60;;;;;;;-147.95;100.00;58458.38;4970270;28;20373;-84
2024/01/28 02:31:07;;;;;;;18.63;4.65;;;;;;;-147.95;100.00;58458.38;4956629;28;20061;-84
2024/01/28 02:33:34;;;;;;;17.20;5.38;;;;;;;-147.95;100.00;58458.38;4975531;28;20105;-84
2024/01/28 02:36:00;;;;;;;10.98;4.40;;;;;;;-147.95;100.00;58458.38;4968356;28;20038;-85
2024/01/28 02:38:26;;;;;;;19.02;4.82;;;;;;;-147.95;100.00;58458.38;4961733;28;21777;-86
2024/01/28 02:40:52;;;;;;;13.15;4.43;;;;;;;-147.95;100.00;58458.38;4943186;28;20111;-86
2024/01/28 02:43:19;;;;;;;15.00;4.35;;;;;;;-147.95;100.00;58458.38;4964036;28;20053;-84
2024/01/28 02:45:49;;;;;;;12.00;3.80;;;;;;;-147.95;100.00;58458.38;4955739;28;20092;-85
2024/01/28 02:48:15;;;;;;;13.90;4.55;;;;;;;-147.95;100.00;58458.38;4972865;28;20472;-83
2024/01/28 02:50:40;;;;;;;12.65;4.00;;;;;;;-147.95;100.00;58458.38;4970190;28;20038;-84
2024/01/28 02:53:06;;;;;;;11.05;4.30;;;;;;;-147.95;100.00;58458.38;4939460;28;20551;-84
2024/01/28 02:55:31;;;;;;;17.77;4.30;;;;;;;-147.95;100.00;58458.38;4954482;28;20061;-85
2024/01/28 02:57:57;;;;;;;13.27;4.05;;;;;;;-147.95;100.00;58458.38;4939708;28;20038;-84
2024/01/28 03:00:23;;;;;;;6.78;3.65;;;;;;;-147.95;100.00;58458.38;4955002;28;20030;-85
2024/01/28 03:02:48;;;;;;;13.27;3.88;;;;;;;-147.95;100.00;58458.38;4954276;28;20030;-84
2024/01/28 03:05:14;;;;;;;14.60;3.72;;;;;;;-147.95;100.00;58458.38;4965264;28;20417;-84
2024/01/28 03:07:40;;;;;;;13.18;3.55;;;;;;;-147.95;100.00;58458.38;4969914;28;20393;-84
2024/01/28 03:10:06;;;;;;;11.38;4.13;;;;;;;-147.95;100.00;58458.38;4969501;28;20057;-85
2024/01/28 03:12:34;;;;;;;10.38;3.55;;;;;;;-147.95;100.00;58458.38;4974016;28;20030;-84
2024/01/28 03:15:02;;;;;;;13.18;3.88;;;;;;;-147.95;100.00;58458.38;4955517;28;20805;-84
2024/01/28 03:17:30;;;;;;;14.98;4.50;;;;;;;-147.95;100.00;58458.38;4968052;28;20064;-84
2024/01/28 03:19:57;;;;;;;11.75;3.75;;;;;;;-147.95;100.00;58458.38;4956291;28;20066;-85
2024/01/28 03:22:24;;;;;;;14.88;4.00;;;;;;;-147.95;100.00;58458.38;4956551;28;20113;-85
2024/01/28 03:24:49;;;;;;;10.45;4.85;;;;;;;-147.95;100.00;58458.38;4940923;28;20132;-85
2024/01/28 03:27:16;;;;;;;16.52;4.63;;;;;;;-147.95;100.00;58458.38;4940542;28;20133;-84
2024/01/28 03:29:42;;;;;;;14.27;4.22;;;;;;;-147.95;100.00;58458.38;4941451;28;20141;-85
2024/01/28 03:32:09;;;;;;;18.30;4.32;;;;;;;-147.95;100.00;58458.38;4951492;28;20030;-85
2024/01/28 03:34:34;;;;;;;11.55;4.15;;;;;;;-147.95;100.00;58458.38;4955830;28;20045;-84
2024/01/28 03:37:01;;;;;;;19.38;4.53;;;;;;;-147.95;100.00;58458.38;4958941;28;20038;-84
2024/01/28 03:39:27;;;;;;;18.05;5.30;;;;;;;-147.95;100.00;58458.38;4944047;28;20038;-85
2024/01/28 03:41:52;;;;;;;17.08;4.88;;;;;;;-147.95;100.00;58458.38;4948100;28;20033;-84
2024/01/28 03:44:22;;;;;;;20.17;5.05;;;;;;;-147.95;100.00;58458.38;4959760;28;20072;-83
2024/01/28 03:46:50;;;;;;;13.65;4.78;;;;;;;-147.95;100.00;58458.38;4960499;28;20507;-85
2024/01/28 03:49:17;;;;;;;13.88;5.05;;;;;;;-147.95;100.00;58458.38;4979878;28;20101;-84
2024/01/28 03:51:42;;;;;;;15.05;5.05;;;;;;;-147.95;100.00;58458.38;4959955;28;20038;-85
2024/01/28 03:54:08;;;;;;;14.73;4.80;;;;;;;-147.95;100.00;58458.38;4958017;28;20197;-85
2024/01/28 03:56:35;;;;;;;10.73;4.63;;;;;;;-147.95;100.00;58458.38;4958508;28;20050;-84
2024/01/28 03:59:01;;;;;;;19.27;5.13;;;;;;;-147.95;100.00;58458.38;4959627;28;20027;-83
2024/01/28 04:01:31;;;;;;;14.80;5.15;;;;;;;-147.95;100.00;58458.38;4971759;28;20077;-84
2024/01/28 04:03:57;;;;;;;13.77;4.80;;;;;;;-147.95;100.00;58458.38;4955136;28;20129;-84
2024/01/28 04:06:25;;;;;;;17.90;4.50;;;;;;;-147.95;100.00;58458.38;4953568;28;20102;-84
2024/01/28 04:08:57;;;;;;;20.70;4.97;;;;;;;-147.95;100.00;58458.38;4954220;28;20035;-84
2024/01/28 04:11:35;;;;;;;18.85;5.30;;;;;;;-147.95;100.00;58458.38;4972946;28;20036;-84
2024/01/28 04:14:01;;;;;;;12.32;5.40;;;;;;;-147.95;100.00;58458.38;4939939;28;20038;-84
2024/01/28 04:16:28;;;;;;;16.10;6.38;;;;;;;-147.95;100.00;58458.38;4943902;28;20035;-84
2024/01/28 04:18:56;;;;;;;18.27;5.68;;;;;;;-147.95;100.00;58458.38;4954271;28;20437;-84
2024/01/28 04:21:23;;;;;;;14.40;6.20;;;;;;;-147.95;100.00;58458.38;4938466;28;20058;-85
2024/01/28 04:23:49;;;;;;;18.38;5.70;;;;;;;-147.95;100.00;58458.38;4954434;28;20066;-84
2024/01/28 04:26:15;;;;;;;23.98;6.57;;;;;;;-147.95;100.00;58458.38;4974057;28;20027;-84
2024/01/28 04:28:43;;;;;;;19.92;6.72;;;;;;;-147.95;100.00;58458.38;4967937;28;20028;-86
2024/01/28 04:31:16;;;;;;;16.73;5.53;;;;;;;-147.95;100.00;58458.38;4969741;28;20045;-85
2024/01/28 04:33:42;;;;;;;16.25;5.82;;;;;;;-147.95;100.00;58458.38;4956450;28;20109;-85
2024/01/28 04:36:10;;;;;;;18.67;5.80;;;;;;;-147.95;100.00;58458.38;4955142;28;20039;-85
2024/01/28 04:38:36;;;;;;;17.40;6.10;;;;;;;-147.95;100.00;58458.38;4956062;28;20545;-85
2024/01/28 04:41:03;;;;;;;16.75;6.13;;;;;;;-147.95;100.00;58458.38;4971547;28;20110;-84
2024/01/28 04:43:31;;;;;;;23.13;6.65;;;;;;;-147.95;100.00;58458.38;4955474;28;20050;-85
2024/01/28 04:45:58;;;;;;;14.82;6.07;;;;;;;-147.95;100.00;58458.38;4971583;28;20039;-85
2024/01/28 04:48:26;;;;;;;20.65;6.53;;;;;;;-147.95;100.00;58458.38;4971011;28;20118;-85
2024/01/28 04:50:52;;;;;;;14.82;6.40;;;;;;;-147.95;100.00;58458.38;4953096;28;20086;-85
2024/01/28 04:53:18;;;;;;;15.60;6.63;;;;;;;-147.95;100.00;58458.38;4934623;28;20110;-85
2024/01/28 04:55:45;;;;;;;13.55;5.93;;;;;;;-147.95;100.00;58458.38;4969435;28;20031;-89
2024/01/28 04:58:11;;;;;;;16.65;5.78;;;;;;;-147.95;100.00;58458.38;4973485;28;20034;-89
2024/01/28 05:00:38;;;;;;;19.92;6.53;;;;;;;-147.95;100.00;58458.38;4974713;28;20085;-89
2024/01/28 05:03:06;;;;;;;26.02;6.40;;;;;;;-147.95;100.00;58458.38;4944141;28;20034;-89
2024/01/28 05:05:34;;;;;;;17.23;6.25;;;;;;;-147.95;100.00;58458.38;4964450;28;20497;-89
2024/01/28 05:08:01;;;;;;;18.02;6.35;;;;;;;-147.95;100.00;58458.38;4973295;28;20056;-89
2024/01/28 05:10:27;;;;;;;13.43;6.00;;;;;;;-147.95;100.00;58458.38;4970237;28;20480;-89
2024/01/28 05:13:02;;;;;;;9.77;5.88;;;;;;;-147.95;100.00;58458.38;4946070;28;20035;-90
2024/01/28 05:15:27;;;;;;;20.58;6.47;;;;;;;-147.95;100.00;58458.38;4975263;28;20035;-90
2024/01/28 05:17:52;;;;;;;17.98;6.07;;;;;;;-147.95;100.00;58458.38;4957971;28;20045;-91
2024/01/28 05:20:19;;;;;;;10.82;5.35;;;;;;;-147.95;100.00;58458.38;4965071;28;20761;-90
2024/01/28 05:22:45;;;;;;;15.23;5.60;;;;;;;-147.95;100.00;58458.38;4949427;28;20026;-90
2024/01/28 05:25:11;;;;;;;14.05;5.68;;;;;;;-147.95;100.00;58458.38;4949669;28;20176;-89
2024/01/28 05:27:36;;;;;;;11.82;5.25;;;;;;;-147.95;100.00;58458.38;4949803;28;20121;-90
2024/01/28 05:30:03;;;;;;;19.55;5.85;;;;;;;-147.95;100.00;58458.38;4978479;28;20101;-90
2024/01/28 05:32:29;;;;;;;15.75;5.60;;;;;;;-147.95;100.00;58458.38;4977456;28;20043;-89
2024/01/28 05:35:02;;;;;;;13.48;6.07;;;;;;;-147.95;100.00;58458.38;4950341;28;20122;-89
2024/01/28 05:37:42;;;;;;;12.90;6.25;;;;;;;-147.95;100.00;58458.38;4980265;28;20045;-89
2024/01/28 05:40:12;;;;;;;17.60;6.18;;;;;;;-147.95;100.00;58458.38;4952987;28;20124;-90
2024/01/28 05:42:43;;;;;;;16.80;5.78;;;;;;;-147.95;100.00;58458.38;4983641;28;20051;-89
2024/01/28 05:45:10;;;;;;;10.82;5.97;;;;;;;-147.95;100.00;58458.38;4964415;28;20041;-90
2024/01/28 05:47:35;;;;;;;18.25;5.93;;;;;;;-147.95;100.00;58458.38;4977735;28;20098;-90
2024/01/28 05:50:03;;;;;;;15.50;5.68;;;;;;;-147.95;100.00;58458.38;4967507;28;20058;-90
2024/01/28 05:52:28;;;;;;;13.85;5.55;;;;;;;-147.95;100.00;58458.38;4976531;28;20035;-90
2024/01/28 05:54:53;;;;;;;9.88;5.07;;;;;;;-147.95;100.00;58458.38;4959638;28;20400;-90
2024/01/28 05:57:19;;;;;;;15.77;5.60;;;;;;;-147.95;100.00;58458.38;4968488;28;20046;-90
2024/01/28 05:59:45;;;;;;;10.82;5.43;;;;;;;-147.95;100.00;58458.38;4951855;28;20031;-90
2024/01/28 06:02:10;;;;;;;14.88;5.70;;;;;;;-147.95;100.00;58458.38;4953101;28;20043;-89
2024/01/28 06:04:40;;;;;;;23.92;5.85;;;;;;;-147.95;100.00;58458.38;4964138;28;20043;-90
2024/01/28 06:07:06;;;;;;;15.68;5.68;;;;;;;-147.95;100.00;58458.38;4947522;28;20138;-85
2024/01/28 06:09:33;;;;;;;13.32;5.75;;;;;;;-147.95;100.00;58458.38;4969961;28;20034;-84
2024/01/28 06:12:01;;;;;;;14.32;6.13;;;;;;;-147.95;100.00;58458.38;4942986;28;20102;-84
2024/01/28 06:14:27;;;;;;;16.90;5.38;;;;;;;-147.95;100.00;58458.38;4957058;28;20030;-84
2024/01/28 06:16:54;;;;;;;15.93;5.50;;;;;;;-147.95;100.00;58458.38;4972562;28;20125;-83
2024/01/28 06:19:19;;;;;;;19.17;5.72;;;;;;;-147.95;100.00;58458.38;4957361;28;20137;-85
2024/01/28 06:21:44;;;;;;;18.88;6.15;;;;;;;-147.95;100.00;58458.38;4952068;28;20045;-85
2024/01/28 06:24:10;;;;;;;16.60;5.22;;;;;;;-147.95;100.00;58458.38;4952825;28;20037;-84
2024/01/28 06:26:39;;;;;;;14.48;4.95;;;;;;;-147.95;100.00;58458.38;4951254;28;20046;-84
2024/01/28 06:29:05;;;;;;;12.68;5.40;;;;;;;-147.95;100.00;58458.38;4936429;28;20038;-84
2024/01/28 06:31:30;;;;;;;14.82;5.68;;;;;;;-147.95;100.00;58458.38;4953161;28;20112;-85
2024/01/28 06:33:56;;;;;;;17.90;6.00;;;;;;;-147.95;100.00;58458.38;4957548;28;20042;-85
2024/01/28 06:36:22;;;;;;;11.85;5.25;;;;;;;-147.95;100.00;58458.38;4971674;28;20084;-83
2024/01/28 06:38:48;;;;;;;13.98;5.68;;;;;;;-147.95;100.00;58458.38;4942005;28;20077;-85
2024/01/28 06:41:15;;;;;;;17.10;5.82;;;;;;;-147.95;100.00;58458.38;4973639;28;20019;-85
2024/01/28 06:43:43;;;;;;;12.15;5.25;;;;;;;-147.95;100.00;58458.38;4972323;28;20041;-85
2024/01/28 06:46:11;;;;;;;17.92;5.15;;;;;;;-147.95;100.00;58458.38;4971679;28;20385;-85
2024/01/28 06:48:38;;;;;;;15.60;5.60;;;;;;;-147.95;100.00;58458.38;4972613;28;20519;-83
2024/01/28 06:51:05;;;;;;;13.52;5.60;;;;;;;-147.95;100.00;58458.38;4941070;28;20033;-85
2024/01/28 06:53:32;;;;;;;11.40;4.65;;;;;;;-147.95;100.00;58458.38;4969007;28;20615;-85
2024/01/28 06:55:57;;;;;;;18.83;5.32;;;;;;;-147.95;100.00;58458.38;4940606;28;20470;-85
2024/01/28 06:58:23;;;;;;;14.98;5.47;;;;;;;-147.95;100.00;58458.38;4957118;28;20027;-85
2024/01/28 07:00:52;;;;;;;16.85;5.65;;;;;;;-147.95;100.00;58458.38;4971444;28;20022;-86
2024/01/28 07:03:19;;;;;;;12.25;5.35;;;;;;;-147.95;100.00;58458.38;4970379;28;20029;-85
2024/01/28 07:05:45;;;;;;;15.07;4.63;;;;;;;-147.95;100.00;58458.38;4936684;28;20597;-84
2024/01/28 07:08:10;;;;;;;17.73;5.30;;;;;;;-147.95;100.00;58458.38;4949426;28;20117;-85
2024/01/28 07:10:37;;;;;;;12.82;5.65;;;;;;;-147.95;100.00;58458.38;4953732;28;20039;-85
2024/01/28 07:13:04;;;;;;;11.70;4.70;;;;;;;-147.95;100.00;58458.38;4954319;28;20053;-85
2024/01/28 07:15:36;;;;;;;15.43;5.60;;;;;;;-147.95;100.00;58458.38;4953633;28;20051;-84
2024/01/28 07:18:02;;;;;;;15.57;6.80;;;;;;;-147.95;100.00;58458.38;4956086;28;20167;-85
2024/01/28 07:20:29;;;;;;;17.60;6.72;;;;;;;-147.95;100.00;58458.38;4942350;28;20052;-85
2024/01/28 07:22:54;;;;;;;23.60;7.43;;;;;;;-147.95;100.00;58458.38;4957742;28;20037;-86
2024/01/28 07:25:20;;;;;;;18.88;5.57;;;;;;;-147.95;100.00;58458.38;4943414;28;20030;-86
2024/01/28 07:27:48;;;;;;;11.10;4.88;;;;;;;-147.95;100.00;58458.38;4954108;28;20047;-84
2024/01/28 07:30:16;;;;;;;16.50;5.22;;;;;;;-147.95;100.00;58458.38;4939074;28;20043;-84
2024/01/28 07:32:43;;;;;;;12.88;5.43;;;;;;;-147.95;100.00;58458.38;4957218;28;20405;-84
2024/01/28 07:35:11;;;;;;;14.40;5.05;;;;;;;-147.95;100.00;58458.38;4957957;28;20565;-84
2024/01/28 07:37:38;;;;;;;9.40;4.93;;;;;;;-147.95;100.00;58458.38;4940143;28;20027;-85
2024/01/28 07:40:04;;;;;;;16.58;5.40;;;;;;;-147.95;100.00;58458.38;4940230;28;20030;-84
2024/01/28 07:42:31;;;;;;;9.90;5.07;;;;;;;-147.95;100.00;58458.38;4955274;28;20033;-83
2024/01/28 07:44:56;;;;;;;15.25;5.57;;;;;;;-147.95;100.00;58458.38;4961316;28;20034;-84
2024/01/28 07:47:22;;;;;;;12.88;5.10;;;;;;;-147.95;100.00;58458.38;4956986;28;20043;-84
2024/01/28 07:49:47;;;;;;;9.55;4.82;;;;;;;-147.95;100.00;58458.38;4952548;28;20035;-84
2024/01/28 07:52:12;;;;;;;12.23;5.65;;;;;;;-147.95;100.00;58458.38;4941889;28;20460;-84
2024/01/28 07:54:42;;;;;;;19.77;5.65;;;;;;;-147.95;100.00;58458.38;4956907;28;20031;-85
2024/01/28 07:57:09;;;;;;;13.70;4.88;;;;;;;-147.95;100.00;58458.38;4942572;28;20038;-84
2024/01/28 07:59:38;;;;;;;20.20;5.82;;;;;;;-147.95;100.00;58458.38;4946282;28;20035;-84
2024/01/28 08:02:06;;;;;;;21.45;5.82;;;;;;;-147.95;100.00;58458.38;4970582;28;20397;-84
2024/01/28 08:04:36;;;;;;;18.10;5.53;;;;;;;-147.95;100.00;58458.38;4951181;28;20504;-85
2024/01/28 08:07:02;;;;;;;19.92;5.60;;;;;;;-147.95;100.00;58458.38;4953808;28;20530;-85
2024/01/28 08:09:31;;;;;;;16.00;5.43;;;;;;;-147.95;100.00;58458.38;4950934;28;20054;-84
2024/01/28 08:11:57;;;;;;;14.43;5.20;;;;;;;-147.95;100.00;58458.38;4956283;28;20031;-85
2024/01/28 08:14:27;;;;;;;17.20;5.15;;;;;;;-147.95;100.00;58458.38;4971247;28;20030;-86
2024/01/28 08:16:54;;;;;;;19.17;5.22;;;;;;;-147.95;100.00;58458.38;4966205;28;20109;-84
2024/01/28 08:19:20;;;;;;;17.42;5.88;;;;;;;-147.95;100.00;58458.38;4949329;28;20054;-84
2024/01/28 08:21:47;;;;;;;17.27;5.38;;;;;;;-147.95;100.00;58458.38;4964235;28;20374;-83
2024/01/28 08:24:13;;;;;;;14.10;4.97;;;;;;;-147.95;100.00;58458.38;4953388;28;20027;-83
2024/01/28 08:26:41;;;;;;;14.88;4.47;;;;;;;-147.95;100.00;58458.38;4942529;28;21848;-85
2024/01/28 08:29:07;;;;;;;17.25;5.35;;;;;;;-147.95;100.00;58458.38;4969947;28;20039;-83
2024/01/28 08:31:33;;;;;;;14.98;5.40;;;;;;;-147.95;100.00;58458.38;4952900;28;20097;-84
2024/01/28 08:34:00;;;;;;;10.40;4.72;;;;;;;-147.95;100.00;58458.38;4990974;28;20038;-82
2024/01/28 08:36:26;;;;;;;16.55;5.05;;;;;;;-147.95;100.00;58458.38;4969523;28;20039;-85
2024/01/28 08:38:54;;;;;;;15.00;5.22;;;;;;;-147.95;100.00;58458.38;4967276;28;20023;-82
2024/01/28 08:41:20;;;;;;;12.60;4.78;;;;;;;-147.95;100.00;58458.38;4952331;28;20625;-84
2024/01/28 08:43:47;;;;;;;17.92;4.88;;;;;;;-147.95;100.00;58458.38;4964659;28;20049;-83
2024/01/28 08:46:12;;;;;;;17.88;4.65;;;;;;;-147.95;100.00;58458.38;4934928;28;20028;-84
2024/01/28 08:48:39;;;;;;;9.70;4.70;;;;;;;-147.95;100.00;58458.38;4948061;28;20034;-83
2024/01/28 08:51:08;;;;;;;10.27;4.45;;;;;;;-147.95;100.00;58458.38;4966038;28;20404;-83
2024/01/28 08:53:34;;;;;;;10.70;4.50;;;;;;;-147.95;100.00;58458.38;4952382;28;20097;-83
2024/01/28 08:56:00;;;;;;;9.80;4.40;;;;;;;-147.95;100.00;58458.38;4955278;28;20444;-83
2024/01/28 08:58:27;;;;;;;14.02;4.93;;;;;;;-147.95;100.00;58458.38;4964926;28;20038;-84
2024/01/28 09:00:52;;;;;;;9.25;4.35;;;;;;;-147.95;100.00;58458.38;4967927;28;20042;-83
2024/01/28 09:03:18;;;;;;;9.68;4.88;;;;;;;-147.95;100.00;58458.38;4970261;28;20077;-85
2024/01/28 09:05:43;;;;;;;13.52;4.97;;;;;;;-147.95;100.00;58458.38;4955058;28;20844;-83
2024/01/28 09:08:09;;;;;;;13.52;4.50;;;;;;;-147.95;100.00;58458.38;4957944;28;20047;-84
2024/01/28 09:10:34;;;;;;;13.43;4.63;;;;;;;-147.95;100.00;58458.38;4938454;28;20038;-83
2024/01/28 09:13:01;;;;;;;10.00;3.72;;;;;;;-147.95;100.00;58458.38;4968625;28;20046;-85
2024/01/28 09:15:26;;;;;;;12.77;4.65;;;;;;;-147.95;100.00;58458.38;4937203;28;20086;-84
2024/01/28 09:17:52;;;;;;;12.68;3.97;;;;;;;-147.95;100.00;58458.38;4931462;28;20527;-85
2024/01/28 09:20:18;;;;;;;7.55;3.60;;;;;;;-147.95;100.00;58458.38;4960228;28;20499;-84
2024/01/28 09:22:43;;;;;;;13.50;3.80;;;;;;;-147.95;100.00;58458.38;4936627;28;20065;-84
2024/01/28 09:25:10;;;;;;;6.80;3.58;;;;;;;-147.95;100.00;58458.38;4948386;28;20038;-84
2024/01/28 09:27:35;;;;;;;15.40;3.50;;;;;;;-147.95;100.00;58458.38;4934882;28;20030;-84
2024/01/28 09:30:01;;;;;;;11.05;3.83;;;;;;;-147.95;100.00;58458.38;4969471;28;20030;-85
2024/01/28 09:32:26;;;;;;;9.88;4.30;;;;;;;-147.95;100.00;58458.38;4947964;28;20035;-89
2024/01/28 09:34:52;;;;;;;14.27;3.88;;;;;;;-147.95;100.00;58458.38;4942477;28;20489;-85
2024/01/28 09:37:19;;;;;;;10.23;3.65;;;;;;;-147.95;100.00;58458.38;4961930;28;20031;-85
2024/01/28 09:39:47;;;;;;;8.55;3.10;;;;;;;-147.95;100.00;58458.38;4965683;28;20023;-86
2024/01/28 09:42:35;;;;;;;13.73;4.07;;;;;;;-147.95;100.00;58458.38;4967762;28;20061;-86
2024/01/28 09:45:01;;;;;;;6.78;2.97;;;;;;;-147.95;100.00;58458.38;4965644;28;20102;-86
2024/01/28 09:47:32;;;;;;;12.02;3.15;;;;;;;-147.95;100.00;58458.38;4951057;28;20068;-85
2024/01/28 09:50:00;;;;;;;11.77;3.10;;;;;;;-147.95;100.00;58458.38;4949533;28;20070;-85
2024/01/28 09:52:27;;;;;;;11.25;3.30;;;;;;;-147.95;100.00;58458.38;4954468;28;20038;-84
2024/01/28 09:54:52;;;;;;;8.55;3.10;;;;;;;-147.95;100.00;58458.38;4950220;28;20058;-86
2024/01/28 09:57:18;;;;;;;10.30;3.17;;;;;;;-147.95;100.00;58458.38;4952383;28;20126;-85
2024/01/28 09:59:43;;;;;;;8.43;2.90;;;;;;;-147.95;100.00;58458.38;4969915;28;20035;-85
2024/01/28 10:02:09;;;;;;;8.73;2.65;;;;;;;-147.95;100.00;58458.38;4948364;28;20066;-85
2024/01/28 10:04:37;;;;;;;8.07;3.13;;;;;;;-147.95;100.00;58458.38;4971522;28;20030;-85
2024/01/28 10:07:03;;;;;;;7.40;2.60;;;;;;;-147.95;100.00;58458.38;4975517;28;20116;-85
2024/01/28 10:09:29;;;;;;;5.70;2.70;;;;;;;-147.95;100.00;58458.38;4970246;28;20484;-85
2024/01/28 10:12:00;;;;;;;15.63;3.65;;;;;;;-147.95;100.00;58458.38;4942248;28;20038;-85
2024/01/28 10:14:28;;;;;;;6.40;2.80;;;;;;;-147.95;100.00;58458.38;4974264;28;20051;-86
2024/01/28 10:16:56;;;;;;;10.07;2.88;;;;;;;-147.95;100.00;58458.38;4934748;28;20378;-86
2024/01/28 10:19:21;;;;;;;7.15;2.55;;;;;;;-147.95;100.00;58458.38;4986646;28;20049;-85
2024/01/28 10:21:47;;;;;;;10.82;3.15;;;;;;;-147.95;100.00;58458.38;4954096;28;20603;-85
2024/01/28 10:24:15;;;;;;;8.82;2.90;;;;;;;-147.95;100.00;58458.38;4956042;28;20503;-86
2024/01/28 10:26:41;;;;;;;9.68;2.97;;;;;;;-147.95;100.00;58458.38;4956700;28;20452;-84
2024/01/28 10:29:12;;;;;;;5.00;2.70;;;;;;;-147.95;100.00;58458.38;4985231;28;20031;-84
2024/01/28 10:31:40;;;;;;;9.77;2.92;;;;;;;-147.95;100.00;58458.38;4944602;28;20030;-85
2024/01/28 10:34:08;;;;;;;7.63;2.45;;;;;;;-147.95;100.00;58458.38;4973193;28;20447;-84
2024/01/28 10:36:36;;;;;;;9.43;2.80;;;;;;;-147.95;100.00;58458.38;4960085;28;20027;-85
2024/01/28 10:39:04;;;;;;;6.90;2.70;;;;;;;-147.95;100.00;58458.38;4971458;28;20395;-85
2024/01/28 10:41:32;;;;;;;11.10;3.15;;;;;;;-147.95;100.00;58458.38;4965095;28;20030;-85
2024/01/28 10:44:03;;;;;;;7.45;2.83;;;;;;;-147.95;100.00;58458.38;4954188;28;20117;-84
2024/01/28 10:46:39;;;;;;;5.07;2.55;;;;;;;-147.95;100.00;58458.38;4984914;28;20485;-85
2024/01/28 10:49:06;;;;;;;13.07;3.50;;;;;;;-147.95;100.00;58458.38;4982717;28;20030;-86
2024/01/28 10:51:39;;;;;;;6.38;2.45;;;;;;;-147.95;100.00;58458.38;4966615;28;20042;-85
2024/01/28 10:54:08;;;;;;;7.97;2.63;;;;;;;-147.95;100.00;58458.38;4942768;28;20103;-86
2024/01/28 10:56:40;;;;;;;7.43;3.05;;;;;;;-147.95;100.00;58458.38;4981763;28;20036;-85
2024/01/28 10:59:07;;;;;;;6.60;2.60;;;;;;;-147.95;100.00;58458.38;4986194;28;20077;-85
2024/01/28 11:01:36;;;;;;;7.18;2.60;;;;;;;-147.95;100.00;58458.38;4954977;28;20373;-86